createdAt,value
2023-04-15T00:01:00.718Z,70.64
2023-04-15T00:03:28.550Z,70.35
2023-04-15T00:05:55.399Z,70.67
2023-04-15T00:08:21.972Z,70.39
2023-04-15T00:10:49.269Z,70.27
2023-04-15T00:13:16.601Z,70.00
2023-04-15T00:15:43.418Z,70.54
2023-04-15T00:18:10.202Z,70.51
2023-04-15T00:20:37.258Z,70.16
2023-04-15T00:23:04.219Z,70.58
2023-04-15T00:25:31.050Z,70.12
2023-04-15T00:27:57.583Z,70.55
2023-04-15T00:30:24.156Z,70.70
2023-04-15T00:32:50.788Z,70.75
2023-04-15T00:35:17.474Z,70.65
2023-04-15T00:37:46.036Z,71.05
2023-04-15T00:40:14.100Z,72.00
2023-04-15T00:42:41.120Z,71.84
2023-04-15T00:45:08.885Z,72.75
2023-04-15T00:47:37.504Z,73.66
2023-04-15T00:50:05.144Z,74.52
2023-04-15T00:52:32.077Z,74.56
2023-04-15T00:54:59.776Z,74.43
2023-04-15T00:57:27.167Z,74.90
2023-04-15T00:59:55.444Z,75.42
2023-04-15T01:02:22.482Z,76.04
2023-04-15T01:04:49.750Z,77.01
2023-04-15T01:07:16.475Z,76.65
2023-04-15T01:09:43.364Z,77.63
2023-04-15T01:12:13.139Z,77.80
2023-04-15T01:14:39.851Z,77.90
2023-04-15T01:17:06.330Z,78.21
2023-04-15T01:19:32.984Z,78.74
2023-04-15T01:21:59.732Z,79.91
2023-04-15T01:24:28.413Z,79.13
2023-04-15T01:26:55.083Z,78.38
2023-04-15T01:29:22.503Z,78.51
2023-04-15T01:31:53.675Z,78.42
2023-04-15T01:34:20.923Z,78.56
2023-04-15T01:36:47.542Z,79.33
2023-04-15T01:39:14.278Z,78.95
2023-04-15T01:41:42.339Z,78.79
2023-04-15T01:44:09.002Z,78.22
2023-04-15T01:46:36.509Z,78.16
2023-04-15T01:49:03.174Z,77.86
2023-04-15T01:51:29.702Z,77.76
2023-04-15T01:53:58.766Z,77.98
2023-04-15T01:56:25.427Z,78.42
2023-04-15T01:58:52.659Z,79.02
2023-04-15T02:01:20.032Z,78.61
2023-04-15T02:03:47.899Z,79.95
2023-04-15T02:06:14.721Z,79.34
2023-04-15T02:08:41.381Z,78.83
2023-04-15T02:11:08.380Z,79.10
2023-04-15T02:13:35.098Z,78.81
2023-04-15T02:16:01.669Z,78.95
2023-04-15T02:18:28.148Z,78.86
2023-04-15T02:20:55.627Z,79.33
2023-04-15T02:23:22.058Z,79.39
2023-04-15T02:25:53.812Z,79.45
2023-04-15T02:28:21.761Z,79.63
2023-04-15T02:30:53.736Z,80.17
2023-04-15T02:33:21.651Z,80.90
2023-04-15T02:35:48.263Z,81.05
2023-04-15T02:38:16.845Z,80.97
2023-04-15T02:40:43.361Z,81.53
2023-04-15T02:43:09.839Z,80.93
2023-04-15T02:45:36.479Z,81.15
2023-04-15T02:48:06.341Z,81.03
2023-04-15T02:50:33.445Z,81.20
2023-04-15T02:53:01.722Z,81.45
2023-04-15T02:55:28.772Z,81.38
2023-04-15T02:57:55.654Z,81.56
2023-04-15T03:00:22.467Z,82.68
2023-04-15T03:02:52.460Z,82.90
2023-04-15T03:05:19.138Z,83.62
2023-04-15T03:07:45.787Z,84.00
2023-04-15T03:10:12.429Z,84.40
2023-04-15T03:12:39.458Z,84.32
2023-04-15T03:15:06.897Z,85.33
2023-04-15T03:17:33.442Z,85.49
2023-04-15T03:20:01.388Z,85.45
2023-04-15T03:22:27.827Z,85.66
2023-04-15T03:24:54.268Z,85.61
2023-04-15T03:27:20.893Z,85.55
2023-04-15T03:29:47.334Z,85.40
2023-04-15T03:32:15.201Z,85.83
2023-04-15T03:34:42.328Z,86.26
2023-04-15T03:37:08.791Z,86.21
2023-04-15T03:39:35.750Z,86.56
2023-04-15T03:42:03.443Z,86.21
2023-04-15T03:44:30.545Z,86.29
2023-04-15T03:46:57.056Z,86.54
2023-04-15T03:49:24.510Z,86.28
2023-04-15T03:51:51.216Z,85.89
2023-04-15T03:54:17.694Z,85.73
2023-04-15T03:56:44.185Z,86.39
2023-04-15T03:59:11.417Z,87.11
2023-04-15T04:01:38.208Z,87.27
2023-04-15T04:04:04.796Z,87.47
2023-04-15T04:06:31.629Z,87.80
2023-04-15T04:08:58.068Z,87.99
2023-04-15T04:11:24.618Z,87.34
2023-04-15T04:13:51.121Z,87.28
2023-04-15T04:16:17.750Z,87.33
2023-04-15T04:18:44.317Z,88.14
2023-04-15T04:21:11.277Z,87.77
2023-04-15T04:23:37.814Z,88.22
2023-04-15T04:26:04.365Z,87.72
2023-04-15T04:28:30.872Z,87.99
2023-04-15T04:30:57.518Z,88.15
2023-04-15T04:33:24.109Z,88.31
2023-04-15T04:35:50.605Z,88.56
2023-04-15T04:38:17.058Z,89.18
2023-04-15T04:40:43.723Z,89.10
2023-04-15T04:43:10.203Z,89.12
2023-04-15T04:45:36.730Z,89.30
2023-04-15T04:48:07.197Z,89.01
2023-04-15T04:50:34.592Z,88.77
2023-04-15T04:53:01.787Z,89.55
2023-04-15T04:55:28.411Z,89.97
2023-04-15T04:57:54.922Z,90.47
2023-04-15T05:00:21.579Z,90.79
2023-04-15T05:02:48.423Z,91.41
2023-04-15T05:05:15.143Z,91.47
2023-04-15T05:07:42.136Z,91.88
2023-04-15T05:10:09.220Z,91.95
2023-04-15T05:12:37.368Z,92.16
2023-04-15T05:15:04.600Z,91.58
2023-04-15T05:17:33.174Z,90.56
2023-04-15T05:19:59.678Z,90.09
2023-04-15T05:22:26.276Z,90.63
2023-04-15T05:24:52.781Z,90.64
2023-04-15T05:27:19.416Z,90.89
2023-04-15T05:29:46.170Z,90.92
2023-04-15T05:32:12.733Z,90.65
2023-04-15T05:34:39.236Z,90.12
2023-04-15T05:37:05.923Z,88.76
2023-04-15T05:39:32.776Z,88.40
2023-04-15T05:42:00.038Z,88.66
2023-04-15T05:44:26.880Z,87.91
2023-04-15T05:46:53.436Z,88.35
2023-04-15T05:49:19.852Z,88.00
2023-04-15T05:51:47.838Z,89.05
2023-04-15T05:54:14.299Z,89.12
2023-04-15T05:56:41.115Z,89.44
2023-04-15T05:59:07.582Z,89.67
2023-04-15T06:01:34.449Z,89.57
2023-04-15T06:04:01.073Z,89.99
2023-04-15T06:06:27.757Z,90.07
2023-04-15T06:08:55.762Z,90.45
2023-04-15T06:11:22.492Z,91.16
2023-04-15T06:13:49.021Z,91.01
2023-04-15T06:16:15.684Z,90.70
2023-04-15T06:18:42.304Z,90.96
2023-04-15T06:21:08.772Z,90.71
2023-04-15T06:23:36.512Z,90.46
2023-04-15T06:26:03.708Z,90.07
2023-04-15T06:28:30.579Z,90.13
2023-04-15T06:30:57.109Z,90.62
2023-04-15T06:33:23.589Z,90.74
2023-04-15T06:35:50.259Z,90.71
2023-04-15T06:38:16.883Z,90.28
2023-04-15T06:40:43.429Z,89.66
2023-04-15T06:43:10.190Z,89.84
2023-04-15T06:45:36.797Z,90.24
2023-04-15T06:48:03.439Z,90.29
2023-04-15T06:50:29.884Z,89.59
2023-04-15T06:52:57.180Z,88.99
2023-04-15T06:55:23.689Z,89.34
2023-04-15T06:57:50.353Z,89.56
2023-04-15T07:00:17.585Z,90.13
2023-04-15T07:02:44.839Z,90.40
2023-04-15T07:05:11.381Z,89.55
2023-04-15T07:07:38.395Z,89.62
2023-04-15T07:10:05.560Z,87.81
2023-04-15T07:12:31.973Z,88.09
2023-04-15T07:14:58.662Z,88.23
2023-04-15T07:17:25.120Z,86.43
2023-04-15T07:19:51.696Z,87.24
2023-04-15T07:22:18.171Z,88.14
2023-04-15T07:24:44.656Z,88.49
2023-04-15T07:27:11.552Z,88.02
2023-04-15T07:29:38.077Z,88.03
2023-04-15T07:32:04.949Z,88.90
2023-04-15T07:34:32.607Z,88.84
2023-04-15T07:36:59.279Z,87.29
2023-04-15T07:39:27.347Z,87.83
2023-04-15T07:41:53.788Z,86.21
2023-04-15T07:44:20.733Z,86.66
2023-04-15T07:46:47.898Z,84.76
2023-04-15T07:49:14.494Z,83.75
2023-04-15T07:51:41.059Z,84.26
2023-04-15T07:54:07.689Z,83.67
2023-04-15T07:56:34.141Z,83.25
2023-04-15T07:59:02.617Z,82.10
2023-04-15T08:01:29.376Z,80.72
2023-04-15T08:03:56.020Z,79.45
2023-04-15T08:06:22.843Z,78.85
2023-04-15T08:08:49.369Z,78.09
2023-04-15T08:11:16.242Z,77.73
2023-04-15T08:13:42.911Z,77.24
2023-04-15T08:16:21.553Z,78.28
2023-04-15T08:18:49.203Z,76.68
2023-04-15T08:21:16.971Z,76.83
2023-04-15T08:23:44.117Z,75.01
2023-04-15T08:26:11.122Z,75.57
2023-04-15T08:28:41.800Z,73.98
2023-04-15T08:31:09.467Z,75.04
2023-04-15T08:33:36.312Z,74.57
2023-04-15T08:36:03.439Z,74.34
2023-04-15T08:38:30.079Z,73.97
2023-04-15T08:41:00.351Z,72.96
2023-04-15T08:43:30.564Z,72.81
2023-04-15T08:46:00.190Z,73.41
2023-04-15T08:48:29.048Z,74.63
2023-04-15T08:50:55.844Z,74.83
2023-04-15T08:53:22.356Z,72.14
2023-04-15T08:55:52.684Z,73.09
2023-04-15T08:58:19.831Z,74.13
2023-04-15T09:00:46.498Z,74.90
2023-04-15T09:03:13.675Z,73.51
2023-04-15T09:05:40.272Z,74.30
2023-04-15T09:08:06.874Z,72.68
2023-04-15T09:10:33.737Z,72.97
2023-04-15T09:13:02.074Z,71.98
2023-04-15T09:15:29.860Z,72.45
2023-04-15T09:17:56.993Z,73.07
2023-04-15T09:20:24.079Z,72.98
2023-04-15T09:22:51.980Z,73.82
2023-04-15T09:25:24.917Z,73.04
2023-04-15T09:27:54.533Z,72.29
2023-04-15T09:30:21.348Z,73.31
2023-04-15T09:32:52.396Z,73.98
2023-04-15T09:35:19.932Z,72.00
2023-04-15T09:37:46.528Z,72.36
2023-04-15T09:40:13.922Z,72.82
2023-04-15T09:42:55.158Z,73.90
2023-04-15T09:45:22.291Z,74.35
2023-04-15T09:47:49.132Z,72.91
2023-04-15T09:50:15.836Z,72.56
2023-04-15T09:52:44.179Z,71.83
2023-04-15T09:55:11.815Z,72.32
2023-04-15T09:57:41.418Z,70.64
2023-04-15T10:00:11.115Z,69.79
2023-04-15T10:02:39.962Z,70.36
2023-04-15T10:05:07.471Z,70.29
2023-04-15T10:07:35.223Z,71.53
2023-04-15T10:10:03.711Z,71.04
2023-04-15T10:12:31.686Z,72.62
2023-04-15T10:15:05.104Z,71.02
2023-04-15T10:17:35.294Z,69.33
2023-04-15T10:20:04.652Z,69.43
2023-04-15T10:22:32.503Z,69.31
2023-04-15T10:25:02.405Z,70.98
2023-04-15T10:27:29.241Z,69.78
2023-04-15T10:29:57.231Z,69.12
2023-04-15T10:32:25.723Z,70.54
2023-04-15T10:34:54.642Z,72.30
2023-04-15T10:37:23.336Z,69.64
2023-04-15T10:39:50.768Z,70.31
2023-04-15T10:42:19.411Z,69.03
2023-04-15T10:44:53.465Z,67.66
2023-04-15T10:47:21.711Z,68.50
2023-04-15T10:50:02.490Z,67.37
2023-04-15T10:52:29.444Z,67.53
2023-04-15T10:55:23.508Z,67.77
2023-04-15T10:57:54.785Z,69.25
2023-04-15T11:00:25.720Z,69.27
2023-04-15T11:03:34.565Z,68.83
2023-04-15T11:06:01.982Z,68.35
2023-04-15T11:08:55.304Z,67.17
2023-04-15T11:11:21.920Z,67.67
2023-04-15T11:13:55.270Z,66.65
2023-04-15T11:16:21.894Z,64.00
2023-04-15T11:18:58.502Z,65.10
2023-04-15T11:21:26.475Z,68.41
2023-04-15T11:23:53.002Z,65.38
2023-04-15T11:26:19.497Z,64.92
2023-04-15T11:28:46.282Z,64.28
2023-04-15T11:31:18.316Z,64.86
2023-04-15T11:33:46.245Z,66.08
2023-04-15T11:36:13.825Z,66.89
2023-04-15T11:38:44.847Z,69.09
2023-04-15T11:41:11.764Z,67.50
2023-04-15T11:43:38.382Z,68.19
2023-04-15T11:46:05.432Z,64.98
2023-04-15T11:48:36.680Z,67.05
2023-04-15T11:51:05.924Z,65.79
2023-04-15T11:53:48.851Z,66.29
2023-04-15T11:56:21.110Z,65.74
2023-04-15T11:58:50.718Z,66.15
2023-04-15T12:01:17.593Z,64.30
2023-04-15T12:03:47.183Z,64.76
2023-04-15T12:06:21.163Z,65.19
2023-04-15T12:08:59.034Z,66.09
2023-04-15T12:11:47.358Z,67.91
2023-04-15T12:14:28.266Z,66.55
2023-04-15T12:16:58.472Z,65.20
2023-04-15T12:19:29.642Z,65.54
2023-04-15T12:22:01.809Z,65.57
2023-04-15T12:24:32.241Z,65.42
2023-04-15T12:27:03.631Z,65.96
2023-04-15T12:29:31.128Z,68.10
2023-04-15T12:32:04.866Z,67.07
2023-04-15T12:34:49.708Z,68.08
2023-04-15T12:37:16.580Z,67.47
2023-04-15T12:39:45.023Z,66.64
2023-04-15T12:42:12.138Z,66.60
2023-04-15T12:44:39.269Z,67.47
2023-04-15T12:47:07.022Z,67.38
2023-04-15T12:49:33.803Z,66.52
2023-04-15T12:52:01.579Z,67.80
2023-04-15T12:54:29.321Z,67.63
2023-04-15T12:56:56.589Z,68.34
2023-04-15T12:59:26.421Z,67.67
2023-04-15T13:01:53.715Z,65.79
2023-04-15T13:04:21.326Z,66.78
2023-04-15T13:06:48.015Z,66.30
2023-04-15T13:09:15.685Z,66.87
2023-04-15T13:11:42.510Z,67.75
2023-04-15T13:14:11.505Z,69.27
2023-04-15T13:16:38.087Z,68.14
2023-04-15T13:19:04.624Z,69.69
2023-04-15T13:21:35.294Z,70.98
2023-04-15T13:24:02.861Z,71.56
2023-04-15T13:26:29.606Z,72.45
2023-04-15T13:28:56.253Z,71.99
2023-04-15T13:31:22.896Z,72.09
2023-04-15T13:33:49.506Z,71.58
2023-04-15T13:36:16.348Z,73.39
2023-04-15T13:38:42.848Z,73.54
2023-04-15T13:41:09.382Z,72.77
2023-04-15T13:43:35.954Z,73.11
2023-04-15T13:46:02.577Z,73.83
2023-04-15T13:48:29.093Z,72.78
2023-04-15T13:50:55.563Z,72.45
2023-04-15T13:53:33.783Z,73.41
2023-04-15T13:56:08.893Z,74.20
2023-04-15T13:58:36.638Z,73.09
2023-04-15T14:01:05.683Z,73.05
2023-04-15T14:03:46.365Z,72.89
2023-04-15T14:06:13.008Z,72.00
2023-04-15T14:08:39.584Z,71.74
2023-04-15T14:11:06.710Z,72.03
2023-04-15T14:13:33.224Z,72.84
2023-04-15T14:15:59.878Z,73.59
2023-04-15T14:18:26.722Z,73.95
2023-04-15T14:20:53.773Z,74.26
2023-04-15T14:23:20.299Z,76.41
2023-04-15T14:25:48.322Z,77.25
2023-04-15T14:28:15.514Z,78.31
2023-04-15T14:30:42.003Z,78.57
2023-04-15T14:33:08.527Z,78.26
2023-04-15T14:35:35.162Z,79.30
2023-04-15T14:38:01.737Z,78.58
2023-04-15T14:40:28.425Z,77.79
2023-04-15T14:42:54.924Z,77.67
2023-04-15T14:45:21.420Z,76.09
2023-04-15T14:47:47.998Z,74.66
2023-04-15T14:50:14.579Z,74.75
2023-04-15T14:52:41.173Z,74.81
2023-04-15T14:55:10.357Z,74.64
2023-04-15T14:57:41.448Z,75.38
2023-04-15T15:00:10.028Z,76.46
2023-04-15T15:02:39.710Z,76.78
2023-04-15T15:05:07.538Z,77.91
2023-04-15T15:07:34.250Z,77.28
2023-04-15T15:10:00.807Z,76.78
2023-04-15T15:12:27.322Z,77.89
2023-04-15T15:14:56.054Z,76.28
2023-04-15T15:17:22.807Z,76.58
2023-04-15T15:19:49.500Z,76.70
2023-04-15T15:22:16.035Z,76.88
2023-04-15T15:24:42.652Z,77.53
2023-04-15T15:27:09.688Z,77.36
2023-04-15T15:29:36.135Z,78.08
2023-04-15T15:32:02.580Z,79.04
2023-04-15T15:34:29.115Z,78.44
2023-04-15T15:36:56.913Z,79.75
2023-04-15T15:39:23.936Z,80.52
2023-04-15T15:41:50.581Z,80.39
2023-04-15T15:44:17.058Z,81.08
2023-04-15T15:46:43.822Z,81.10
2023-04-15T15:49:11.212Z,81.08
2023-04-15T15:51:37.916Z,82.78
2023-04-15T15:54:04.394Z,81.71
2023-04-15T15:56:30.900Z,81.91
2023-04-15T15:58:57.356Z,82.10
2023-04-15T16:01:24.001Z,82.56
2023-04-15T16:03:50.707Z,82.68
2023-04-15T16:06:17.277Z,83.05
2023-04-15T16:08:43.777Z,82.30
2023-04-15T16:11:10.560Z,83.07
2023-04-15T16:13:37.011Z,83.27
2023-04-15T16:16:03.613Z,83.43
2023-04-15T16:18:30.316Z,82.60
2023-04-15T16:20:58.239Z,83.62
2023-04-15T16:23:24.958Z,83.84
2023-04-15T16:25:51.897Z,83.47
2023-04-15T16:28:26.481Z,83.74
2023-04-15T16:30:54.026Z,83.69
2023-04-15T16:33:20.752Z,82.45
2023-04-15T16:35:47.253Z,82.37
2023-04-15T16:38:14.192Z,82.67
2023-04-15T16:40:40.875Z,83.40
2023-04-15T16:43:08.162Z,83.15
2023-04-15T16:45:34.857Z,83.34
2023-04-15T16:48:01.422Z,83.65
2023-04-15T16:50:28.174Z,83.70
2023-04-15T16:52:54.942Z,83.62
2023-04-15T16:55:21.513Z,83.92
2023-04-15T16:57:58.767Z,85.02
2023-04-15T17:00:29.518Z,84.67
2023-04-15T17:02:56.193Z,85.31
2023-04-15T17:05:22.807Z,85.35
2023-04-15T17:07:49.293Z,85.66
2023-04-15T17:10:16.219Z,84.37
2023-04-15T17:12:42.992Z,84.63
2023-04-15T17:15:09.886Z,83.95
2023-04-15T17:17:36.488Z,84.95
2023-04-15T17:20:03.703Z,84.50
2023-04-15T17:22:30.211Z,84.35
2023-04-15T17:24:56.710Z,84.08
2023-04-15T17:27:23.178Z,84.01
2023-04-15T17:29:49.799Z,85.16
2023-04-15T17:32:16.306Z,85.27
2023-04-15T17:34:49.715Z,86.20
2023-04-15T17:37:18.224Z,86.21
2023-04-15T17:39:45.310Z,86.42
2023-04-15T17:42:12.545Z,86.89
2023-04-15T17:44:39.152Z,86.80
2023-04-15T17:47:05.670Z,87.24
2023-04-15T17:49:34.097Z,86.24
2023-04-15T17:52:01.244Z,86.67
2023-04-15T17:54:28.033Z,86.30
2023-04-15T17:56:54.910Z,86.16
2023-04-15T17:59:21.605Z,86.70
2023-04-15T18:01:48.255Z,86.81
2023-04-15T18:04:14.997Z,87.17
2023-04-15T18:06:41.975Z,87.36
2023-04-15T18:09:11.435Z,87.54
2023-04-15T18:11:40.208Z,87.41
2023-04-15T18:14:07.251Z,87.23
2023-04-15T18:16:34.212Z,86.30
2023-04-15T18:19:01.151Z,86.47
2023-04-15T18:21:27.971Z,85.43
2023-04-15T18:23:54.518Z,85.44
2023-04-15T18:26:21.804Z,85.91
2023-04-15T18:28:48.300Z,86.10
2023-04-15T18:31:14.823Z,86.05
2023-04-15T18:33:41.368Z,86.64
2023-04-15T18:36:07.918Z,86.47
2023-04-15T18:38:34.421Z,87.01
2023-04-15T18:41:01.040Z,87.40
2023-04-15T18:43:27.570Z,87.46
2023-04-15T18:45:54.984Z,87.62
2023-04-15T18:48:21.677Z,88.38
2023-04-15T18:50:48.972Z,88.62
2023-04-15T18:53:15.444Z,89.91
2023-04-15T18:55:41.928Z,89.96
2023-04-15T18:58:09.149Z,90.69
2023-04-15T19:00:40.316Z,92.08
2023-04-15T19:03:07.576Z,92.91
2023-04-15T19:05:34.191Z,93.18
2023-04-15T19:08:00.955Z,93.48
2023-04-15T19:10:28.177Z,94.15
2023-04-15T19:12:55.305Z,94.63
2023-04-15T19:15:21.869Z,94.76
2023-04-15T19:17:48.445Z,94.95
2023-04-15T19:20:15.342Z,95.23
2023-04-15T19:22:43.152Z,95.45
2023-04-15T19:25:10.158Z,95.62
2023-04-15T19:27:38.313Z,95.47
2023-04-15T19:30:06.573Z,95.85
2023-04-15T19:32:33.255Z,95.99
2023-04-15T19:35:00.025Z,96.36
2023-04-15T19:37:26.542Z,96.85
2023-04-15T19:39:54.776Z,97.27
2023-04-15T19:42:21.578Z,98.60
2023-04-15T19:44:48.139Z,99.04
2023-04-15T19:47:14.791Z,98.92
2023-04-15T19:49:41.984Z,99.20
2023-04-15T19:52:08.442Z,98.83
2023-04-15T19:54:34.991Z,99.03
2023-04-15T19:57:02.339Z,98.95
2023-04-15T19:59:29.095Z,99.46
2023-04-15T20:01:55.792Z,99.91
2023-04-15T20:04:22.874Z,99.89
2023-04-15T20:06:49.903Z,99.40
2023-04-15T20:09:16.577Z,99.54
2023-04-15T20:12:45.581Z,99.61
2023-04-15T20:14:29.838Z,98.92
2023-04-15T20:16:56.427Z,98.77
2023-04-15T20:19:22.918Z,98.33
2023-04-15T20:21:50.857Z,97.78
2023-04-15T20:24:20.181Z,97.97
2023-04-15T20:26:46.823Z,97.23
2023-04-15T20:29:14.092Z,97.77
2023-04-15T20:31:40.784Z,97.46
2023-04-15T20:34:08.804Z,96.88
2023-04-15T20:36:37.223Z,96.93
2023-04-15T20:39:03.982Z,97.22
2023-04-15T20:41:30.919Z,97.12
2023-04-15T20:43:57.635Z,97.00
2023-04-15T20:46:26.680Z,97.41
2023-04-15T20:48:54.029Z,97.69
2023-04-15T20:51:20.553Z,97.91
2023-04-15T20:53:47.077Z,97.91
2023-04-15T20:56:13.583Z,98.19
2023-04-15T20:58:40.018Z,97.97
2023-04-15T21:01:06.681Z,97.90
2023-04-15T21:03:33.431Z,97.86
2023-04-15T21:06:00.243Z,98.08
2023-04-15T21:08:30.385Z,98.41
2023-04-15T21:10:57.381Z,98.55
2023-04-15T21:13:24.248Z,98.83
2023-04-15T21:15:53.399Z,98.76
2023-04-15T21:18:21.169Z,99.48
2023-04-15T21:20:56.679Z,99.79
2023-04-15T21:23:23.344Z,99.87
2023-04-15T21:25:49.792Z,100.00
2023-04-15T21:28:16.284Z,100.00
2023-04-15T21:30:42.783Z,100.00
2023-04-15T21:33:09.382Z,100.00
2023-04-15T21:35:36.123Z,100.00
2023-04-15T21:38:02.551Z,100.00
2023-04-15T21:40:29.489Z,100.00
2023-04-15T21:42:55.961Z,100.00
2023-04-15T21:45:22.405Z,100.00
2023-04-15T21:48:00.761Z,100.00
2023-04-15T21:50:34.180Z,100.00
2023-04-15T21:53:00.833Z,100.00
2023-04-15T21:55:27.504Z,100.00
2023-04-15T21:57:54.014Z,100.00
2023-04-15T22:00:21.382Z,100.00
2023-04-15T22:02:47.998Z,100.00
2023-04-15T22:05:14.632Z,100.00
2023-04-15T22:07:41.790Z,100.00
2023-04-15T22:10:09.013Z,100.00
2023-04-15T22:12:35.780Z,100.00
2023-04-15T22:15:02.854Z,100.00
2023-04-15T22:17:29.384Z,100.00
2023-04-15T22:19:55.903Z,100.00
2023-04-15T22:22:22.358Z,100.00
2023-04-15T22:24:59.997Z,100.00
2023-04-15T22:27:26.473Z,100.00
2023-04-15T22:29:53.163Z,100.00
2023-04-15T22:32:19.669Z,100.00
2023-04-15T22:34:46.268Z,100.00
2023-04-15T22:37:13.599Z,100.00
2023-04-15T22:39:40.067Z,100.00
2023-04-15T22:42:06.543Z,100.00
2023-04-15T22:44:32.969Z,100.00
2023-04-15T22:46:59.496Z,100.00
2023-04-15T22:49:26.366Z,100.00
2023-04-15T22:51:52.859Z,100.00
2023-04-15T22:54:19.314Z,100.00
2023-04-15T22:56:45.735Z,100.00
2023-04-15T22:59:12.303Z,100.00
2023-04-15T23:01:38.787Z,100.00
2023-04-15T23:04:11.147Z,100.00
2023-04-15T23:06:52.423Z,100.00
2023-04-15T23:09:19.238Z,100.00
2023-04-15T23:11:45.682Z,100.00
2023-04-15T23:14:12.188Z,100.00
2023-04-15T23:16:38.857Z,100.00
2023-04-15T23:19:05.506Z,100.00
2023-04-15T23:21:32.029Z,100.00
2023-04-15T23:23:58.509Z,100.00
2023-04-15T23:26:25.158Z,100.00
2023-04-15T23:28:51.692Z,100.00
2023-04-15T23:31:18.237Z,100.00
2023-04-15T23:33:44.771Z,100.00
2023-04-15T23:36:11.280Z,100.00
2023-04-15T23:38:37.890Z,100.00
2023-04-15T23:41:04.439Z,100.00
2023-04-15T23:43:31.040Z,100.00
2023-04-15T23:45:57.544Z,100.00
2023-04-15T23:48:24.093Z,100.00
2023-04-15T23:50:50.745Z,100.00
2023-04-15T23:53:17.592Z,100.00
2023-04-15T23:55:44.082Z,100.00
2023-04-15T23:58:10.956Z,100.00
